createdAt,value
2022-11-20T00:07:54.068Z,7.19
2022-11-20T00:27:54.049Z,7.14
2022-11-20T00:47:54.023Z,7.21
2022-11-20T01:07:54.017Z,7.26
2022-11-20T01:27:54.005Z,7.23
2022-11-20T01:47:53.975Z,7.15
2022-11-20T02:07:53.958Z,7.09
2022-11-20T02:27:53.945Z,7.05
2022-11-20T02:47:53.938Z,6.97
2022-11-20T03:07:53.930Z,6.94
2022-11-20T03:27:53.903Z,6.88
2022-11-20T03:47:53.936Z,6.82
2022-11-20T04:07:53.868Z,6.82
2022-11-20T04:27:53.878Z,6.89
2022-11-20T04:47:53.849Z,6.89
2022-11-20T05:07:53.832Z,6.88
2022-11-20T05:27:53.826Z,6.83
2022-11-20T05:47:53.807Z,6.74
2022-11-20T06:07:53.787Z,6.63
2022-11-20T06:27:53.780Z,6.45
2022-11-20T06:47:53.759Z,6.55
2022-11-20T07:07:53.751Z,6.57
2022-11-20T07:27:53.737Z,6.64
2022-11-20T07:47:53.713Z,6.78
2022-11-20T08:07:53.710Z,6.89
2022-11-20T08:27:53.683Z,6.93
2022-11-20T08:47:53.671Z,6.96
2022-11-20T09:07:53.812Z,7.00
2022-11-20T09:27:53.833Z,7.08
2022-11-20T09:47:53.801Z,7.24
2022-11-20T10:07:53.790Z,7.37
2022-11-20T10:27:53.781Z,7.66
2022-11-20T10:47:53.767Z,8.03
2022-11-20T11:07:53.568Z,8.05
2022-11-20T11:27:53.735Z,8.05
2022-11-20T11:47:53.734Z,8.04
2022-11-20T12:07:53.675Z,8.13
2022-11-20T12:27:53.672Z,7.70
2022-11-20T12:47:53.580Z,7.82
2022-11-20T13:07:53.527Z,7.76
2022-11-20T13:27:53.448Z,7.59
2022-11-20T13:47:53.429Z,7.54
2022-11-20T14:07:53.442Z,7.52
2022-11-20T14:27:53.439Z,7.45
2022-11-20T14:47:53.467Z,7.40
2022-11-20T15:07:53.367Z,7.39
2022-11-20T15:27:53.440Z,7.38
2022-11-20T15:47:53.344Z,7.29
2022-11-20T16:07:53.407Z,7.09
2022-11-20T16:27:53.363Z,6.93
2022-11-20T16:47:53.304Z,6.80
2022-11-20T17:07:53.356Z,6.68
2022-11-20T17:27:53.281Z,6.36
2022-11-20T17:47:53.338Z,6.23
2022-11-20T18:07:53.304Z,6.13
2022-11-20T18:27:53.475Z,5.83
2022-11-20T18:47:53.328Z,5.69
2022-11-20T19:07:53.318Z,5.50
2022-11-20T19:27:53.232Z,5.49
2022-11-20T19:47:53.268Z,5.52
2022-11-20T20:07:53.313Z,5.61
2022-11-20T20:27:53.316Z,5.69
2022-11-20T20:47:53.129Z,5.64
2022-11-20T21:07:53.124Z,5.74
2022-11-20T21:27:53.115Z,5.82
2022-11-20T21:47:53.085Z,5.90
2022-11-20T22:07:53.075Z,5.82
2022-11-20T22:27:53.075Z,5.88
2022-11-20T22:47:53.051Z,5.81
2022-11-20T23:07:53.045Z,5.64
2022-11-20T23:27:53.031Z,5.52
2022-11-20T23:47:53.009Z,5.44
